createdAt,value
2022-10-09T00:00:36.596Z,96978.00
2022-10-09T00:03:39.371Z,96975.56
2022-10-09T00:06:41.134Z,96975.66
2022-10-09T00:09:42.794Z,96974.22
2022-10-09T00:12:44.613Z,96971.56
2022-10-09T00:15:47.301Z,96970.84
2022-10-09T00:18:49.337Z,96971.81
2022-10-09T00:21:50.952Z,96964.94
2022-10-09T00:24:52.548Z,96966.13
2022-10-09T00:27:54.146Z,96969.75
2022-10-09T00:30:56.126Z,96963.84
2022-10-09T00:33:57.831Z,96962.25
2022-10-09T00:36:59.432Z,96961.50
2022-10-09T00:40:01.069Z,96957.16
2022-10-09T00:43:03.668Z,96963.56
2022-10-09T00:46:05.962Z,96958.38
2022-10-09T00:49:20.270Z,96957.78
2022-10-09T00:52:24.927Z,96959.59
2022-10-09T00:55:28.936Z,96951.97
2022-10-09T00:58:30.585Z,96944.84
2022-10-09T01:01:32.244Z,96939.91
2022-10-09T01:04:34.076Z,96939.16
2022-10-09T01:07:43.412Z,96935.66
2022-10-09T01:10:59.211Z,96926.25
2022-10-09T01:14:22.813Z,96927.31
2022-10-09T01:17:41.589Z,96923.94
2022-10-09T01:21:23.181Z,96925.88
2022-10-09T01:24:38.931Z,96918.13
2022-10-09T01:27:43.357Z,96912.22
2022-10-09T01:30:46.221Z,96918.59
2022-10-09T01:33:48.523Z,96909.16
2022-10-09T01:36:52.074Z,96907.50
2022-10-09T01:39:54.194Z,96899.75
2022-10-09T01:42:56.622Z,96903.38
2022-10-09T01:46:28.707Z,96898.31
2022-10-09T01:49:41.224Z,96897.59
2022-10-09T01:53:06.344Z,96888.97
2022-10-09T01:56:14.409Z,96891.75
2022-10-09T01:59:19.102Z,96890.06
2022-10-09T02:02:21.485Z,96881.38
2022-10-09T02:05:26.437Z,96889.44
2022-10-09T02:08:30.053Z,96885.94
2022-10-09T02:11:33.320Z,96881.84
2022-10-09T02:14:35.889Z,96882.69
2022-10-09T02:17:47.329Z,96877.50
2022-10-09T02:20:54.490Z,96874.09
2022-10-09T02:23:57.946Z,96877.72
2022-10-09T02:27:00.841Z,96869.03
2022-10-09T02:30:02.950Z,96869.25
2022-10-09T02:33:05.922Z,96862.50
2022-10-09T02:36:07.605Z,96862.50
2022-10-09T02:39:09.609Z,96857.31
2022-10-09T02:42:11.585Z,96859.97
2022-10-09T02:45:13.281Z,96857.44
2022-10-09T02:48:14.884Z,96858.38
2022-10-09T02:51:17.008Z,96855.72
2022-10-09T02:54:18.643Z,96847.06
2022-10-09T02:57:20.231Z,96859.34
2022-10-09T03:00:22.058Z,96851.53
2022-10-09T03:03:26.073Z,96844.53
2022-10-09T03:06:29.169Z,96838.38
2022-10-09T03:09:33.733Z,96841.13
2022-10-09T03:12:35.610Z,96842.94
2022-10-09T03:15:37.721Z,96851.84
2022-10-09T03:18:40.595Z,96839.56
2022-10-09T03:21:42.196Z,96834.25
2022-10-09T03:24:43.850Z,96837.03
2022-10-09T03:27:45.447Z,96832.56
2022-10-09T03:30:47.046Z,96829.19
2022-10-09T03:33:48.743Z,96828.34
2022-10-09T03:36:50.352Z,96832.81
2022-10-09T03:39:51.975Z,96830.25
2022-10-09T03:42:53.588Z,96834.59
2022-10-09T03:45:59.234Z,96837.16
2022-10-09T03:49:02.544Z,96831.00
2022-10-09T03:52:04.188Z,96838.84
2022-10-09T03:55:06.318Z,96832.56
2022-10-09T03:58:08.019Z,96829.19
2022-10-09T04:01:09.782Z,96822.94
2022-10-09T04:04:11.414Z,96827.97
2022-10-09T04:07:13.063Z,96831.38
2022-10-09T04:10:14.892Z,96835.72
2022-10-09T04:13:16.477Z,96829.22
2022-10-09T04:16:18.186Z,96829.94
2022-10-09T04:19:19.803Z,96833.34
2022-10-09T04:22:21.458Z,96837.53
2022-10-09T04:25:23.111Z,96832.25
2022-10-09T04:28:25.135Z,96832.88
2022-10-09T04:31:26.981Z,96826.72
2022-10-09T04:34:28.698Z,96836.25
2022-10-09T04:37:30.383Z,96830.09
2022-10-09T04:40:31.973Z,96821.16
2022-10-09T04:43:34.745Z,96820.34
2022-10-09T04:46:36.411Z,96828.31
2022-10-09T04:49:38.023Z,96821.41
2022-10-09T04:52:39.651Z,96831.91
2022-10-09T04:55:43.359Z,96834.41
2022-10-09T04:58:46.441Z,96830.09
2022-10-09T05:01:48.154Z,96820.34
2022-10-09T05:04:49.883Z,96826.59
2022-10-09T05:07:51.662Z,96824.91
2022-10-09T05:10:53.285Z,96811.75
2022-10-09T05:13:56.480Z,96819.59
2022-10-09T05:17:13.552Z,96810.69
2022-10-09T05:20:16.272Z,96819.13
2022-10-09T05:23:17.926Z,96809.13
2022-10-09T05:26:22.234Z,96807.94
2022-10-09T05:29:23.998Z,96799.03
2022-10-09T05:32:25.627Z,96811.84
2022-10-09T05:35:27.268Z,96813.91
2022-10-09T05:38:30.055Z,96805.56
2022-10-09T05:41:34.721Z,96808.59
2022-10-09T05:44:36.474Z,96810.91
2022-10-09T05:47:38.089Z,96805.44
2022-10-09T05:50:39.734Z,96807.03
2022-10-09T05:53:43.201Z,96806.81
2022-10-09T05:56:45.515Z,96809.94
2022-10-09T05:59:47.187Z,96804.50
2022-10-09T06:02:49.072Z,96806.91
2022-10-09T06:05:51.388Z,96799.56
2022-10-09T06:08:55.823Z,96814.25
2022-10-09T06:11:57.453Z,96810.63
2022-10-09T06:14:59.080Z,96811.38
2022-10-09T06:18:00.709Z,96811.00
2022-10-09T06:21:03.001Z,96808.22
2022-10-09T06:24:05.873Z,96815.81
2022-10-09T06:27:07.532Z,96811.22
2022-10-09T06:30:09.810Z,96818.97
2022-10-09T06:33:11.470Z,96818.59
2022-10-09T06:36:18.457Z,96823.53
2022-10-09T06:39:20.161Z,96817.00
2022-10-09T06:42:21.776Z,96819.41
2022-10-09T06:45:36.743Z,96824.25
2022-10-09T06:48:40.274Z,96831.00
2022-10-09T06:51:42.013Z,96829.06
2022-10-09T06:54:43.668Z,96838.59
2022-10-09T06:57:45.287Z,96845.47
2022-10-09T07:00:47.270Z,96836.44
2022-10-09T07:03:56.505Z,96834.47
2022-10-09T07:06:58.230Z,96841.22
2022-10-09T07:09:59.926Z,96834.69
2022-10-09T07:13:01.522Z,96833.84
2022-10-09T07:16:04.990Z,96837.69
2022-10-09T07:19:08.302Z,96834.78
2022-10-09T07:22:11.525Z,96841.41
2022-10-09T07:25:13.152Z,96847.34
2022-10-09T07:28:15.212Z,96844.69
2022-10-09T07:31:17.482Z,96845.88
2022-10-09T07:34:19.701Z,96849.09
2022-10-09T07:37:21.276Z,96839.91
2022-10-09T07:40:22.936Z,96837.94
2022-10-09T07:43:24.634Z,96841.94
2022-10-09T07:46:32.163Z,96840.59
2022-10-09T07:49:34.784Z,96833.19
2022-10-09T07:52:36.558Z,96832.69
2022-10-09T07:55:45.799Z,96825.16
2022-10-09T07:58:56.357Z,96835.16
2022-10-09T08:01:58.019Z,96824.13
2022-10-09T08:04:59.740Z,96829.75
2022-10-09T08:08:01.841Z,96829.38
2022-10-09T08:11:16.056Z,96836.56
2022-10-09T08:14:19.563Z,96840.41
2022-10-09T08:17:21.407Z,96831.88
2022-10-09T08:20:23.111Z,96830.41
2022-10-09T08:23:24.758Z,96836.06
2022-10-09T08:26:29.079Z,96828.22
2022-10-09T08:29:30.745Z,96828.59
2022-10-09T08:32:32.338Z,96820.75
2022-10-09T08:35:36.672Z,96820.78
2022-10-09T08:38:47.067Z,96820.97
2022-10-09T08:41:54.538Z,96815.94
2022-10-09T08:44:56.669Z,96807.00
2022-10-09T08:48:12.362Z,96815.13
2022-10-09T08:51:25.660Z,96808.97
2022-10-09T08:54:36.382Z,96801.84
2022-10-09T08:57:39.876Z,96795.13
2022-10-09T09:00:45.723Z,96795.81
2022-10-09T09:03:59.436Z,96790.75
2022-10-09T09:07:19.840Z,96790.78
2022-10-09T09:10:48.417Z,96786.56
2022-10-09T09:13:59.698Z,96781.38
2022-10-09T09:17:15.508Z,96782.34
2022-10-09T09:20:32.045Z,96778.13
2022-10-09T09:23:42.140Z,96767.72
2022-10-09T09:26:47.933Z,96765.88
2022-10-09T09:29:59.142Z,96759.94
2022-10-09T09:33:33.739Z,96768.09
2022-10-09T09:36:55.345Z,96758.50
2022-10-09T09:43:24.127Z,96758.06
2022-10-09T09:46:29.300Z,96754.22
2022-10-09T09:49:31.046Z,96755.19
2022-10-09T09:52:42.312Z,96755.59
2022-10-09T09:55:43.976Z,96748.81
2022-10-09T09:58:54.562Z,96746.09
2022-10-09T10:02:01.282Z,96732.13
2022-10-09T10:05:16.785Z,96738.41
2022-10-09T10:08:30.331Z,96735.69
2022-10-09T10:11:35.679Z,96733.94
2022-10-09T10:14:37.374Z,96726.81
2022-10-09T10:17:39.310Z,96727.22
2022-10-09T10:20:55.947Z,96718.75
2022-10-09T10:27:36.886Z,96715.09
2022-10-09T10:30:39.693Z,96701.94
2022-10-09T10:33:43.791Z,96696.09
2022-10-09T10:36:47.689Z,96706.03
2022-10-09T10:40:01.802Z,96693.84
2022-10-09T10:43:15.009Z,96705.63
2022-10-09T10:46:31.104Z,96692.44
2022-10-09T10:49:34.079Z,96706.03
2022-10-09T10:53:02.025Z,96705.28
2022-10-09T10:56:07.595Z,96688.59
2022-10-09T10:59:32.750Z,96698.84
2022-10-09T11:03:03.307Z,96693.69
2022-10-09T11:06:14.604Z,96686.69
2022-10-09T11:09:45.350Z,96681.38
2022-10-09T11:13:17.427Z,96682.28
2022-10-09T11:16:32.905Z,96694.03
2022-10-09T11:19:48.899Z,96684.34
2022-10-09T11:23:28.193Z,96681.72
2022-10-09T11:26:36.352Z,96683.03
2022-10-09T11:29:50.321Z,96663.97
2022-10-09T11:33:02.905Z,96673.03
2022-10-09T11:36:34.074Z,96664.66
2022-10-09T11:39:38.549Z,96657.97
2022-10-09T11:42:40.929Z,96640.69
2022-10-09T11:45:45.762Z,96647.59
2022-10-09T11:49:30.312Z,96641.56
2022-10-09T11:52:51.814Z,96634.19
2022-10-09T11:56:04.826Z,96622.28
2022-10-09T11:59:07.273Z,96617.59
2022-10-09T12:02:21.069Z,96613.75
2022-10-09T12:05:42.454Z,96616.94
2022-10-09T12:09:07.424Z,96614.75
2022-10-09T12:12:22.977Z,96604.69
2022-10-09T12:15:39.000Z,96602.69
2022-10-09T12:18:46.952Z,96597.66
2022-10-09T12:22:02.431Z,96586.75
2022-10-09T12:25:24.254Z,96582.22
2022-10-09T12:28:34.523Z,96582.75
2022-10-09T12:31:40.079Z,96573.16
2022-10-09T12:34:47.218Z,96578.22
2022-10-09T12:37:49.010Z,96576.56
2022-10-09T12:40:53.071Z,96581.25
2022-10-09T12:43:56.470Z,96573.19
2022-10-09T12:47:08.078Z,96573.69
2022-10-09T12:50:26.984Z,96577.19
2022-10-09T12:53:29.105Z,96575.34
2022-10-09T12:56:34.531Z,96582.25
2022-10-09T12:59:36.332Z,96574.81
2022-10-09T13:02:38.049Z,96560.22
2022-10-09T13:05:42.389Z,96557.38
2022-10-09T13:08:45.121Z,96554.00
2022-10-09T13:11:52.728Z,96548.47
2022-10-09T13:15:26.777Z,96548.94
2022-10-09T13:18:28.838Z,96544.25
2022-10-09T13:21:35.196Z,96545.94
2022-10-09T13:24:37.280Z,96528.13
2022-10-09T13:27:39.937Z,96536.88
2022-10-09T13:30:41.542Z,96530.28
2022-10-09T13:33:43.224Z,96527.44
2022-10-09T13:36:44.876Z,96522.75
2022-10-09T13:39:47.552Z,96525.41
2022-10-09T13:43:02.553Z,96525.25
2022-10-09T13:46:04.224Z,96523.41
2022-10-09T13:49:05.885Z,96519.69
2022-10-09T13:52:07.919Z,96523.22
2022-10-09T13:55:10.170Z,96517.00
2022-10-09T13:58:11.791Z,96516.34
2022-10-09T14:01:13.496Z,96507.28
2022-10-09T14:04:15.232Z,96503.94
2022-10-09T14:07:16.868Z,96507.63
2022-10-09T14:10:23.065Z,96506.63
2022-10-09T14:13:25.503Z,96494.88
2022-10-09T14:16:27.987Z,96496.34
2022-10-09T14:19:29.731Z,96489.50
2022-10-09T14:22:31.387Z,96481.44
2022-10-09T14:25:34.569Z,96484.75
2022-10-09T14:28:36.368Z,96480.72
2022-10-09T14:31:38.150Z,96484.09
2022-10-09T14:34:39.786Z,96473.81
2022-10-09T14:37:42.322Z,96469.94
2022-10-09T14:40:45.252Z,96472.25
2022-10-09T14:43:48.541Z,96457.81
2022-10-09T14:46:50.192Z,96463.56
2022-10-09T14:49:51.877Z,96456.31
2022-10-09T14:52:53.577Z,96463.56
2022-10-09T14:55:55.273Z,96454.47
2022-10-09T14:59:00.270Z,96453.16
2022-10-09T15:02:02.368Z,96456.00
2022-10-09T15:05:04.738Z,96442.94
2022-10-09T15:08:06.420Z,96456.38
2022-10-09T15:11:10.123Z,96453.88
2022-10-09T15:14:11.824Z,96451.34
2022-10-09T15:17:13.547Z,96452.34
2022-10-09T15:20:15.246Z,96453.38
2022-10-09T15:23:16.856Z,96451.03
2022-10-09T15:26:18.920Z,96453.91
2022-10-09T15:29:20.734Z,96449.53
2022-10-09T15:32:24.191Z,96449.53
2022-10-09T15:35:25.935Z,96444.53
2022-10-09T15:38:27.596Z,96443.69
2022-10-09T15:41:31.478Z,96438.31
2022-10-09T15:44:33.155Z,96436.13
2022-10-09T15:47:50.351Z,96425.94
2022-10-09T15:50:53.770Z,96428.97
2022-10-09T15:53:56.205Z,96428.47
2022-10-09T15:56:57.937Z,96428.81
2022-10-09T15:59:59.636Z,96426.50
2022-10-09T16:03:01.276Z,96416.44
2022-10-09T16:06:05.643Z,96418.81
2022-10-09T16:09:07.823Z,96413.28
2022-10-09T16:12:09.624Z,96402.91
2022-10-09T16:15:11.485Z,96408.09
2022-10-09T16:18:14.816Z,96412.13
2022-10-09T16:21:18.978Z,96405.63
2022-10-09T16:24:20.662Z,96402.78
2022-10-09T16:27:22.326Z,96400.59
2022-10-09T16:30:24.087Z,96404.50
2022-10-09T16:33:26.463Z,96397.09
2022-10-09T16:36:28.585Z,96402.00
2022-10-09T16:39:30.230Z,96402.50
2022-10-09T16:42:32.870Z,96409.38
2022-10-09T16:45:34.562Z,96396.31
2022-10-09T16:48:36.317Z,96399.50
2022-10-09T16:51:38.064Z,96409.75
2022-10-09T16:54:39.778Z,96402.84
2022-10-09T16:57:41.425Z,96402.53
2022-10-09T17:00:43.092Z,96403.53
2022-10-09T17:03:44.771Z,96410.41
2022-10-09T17:06:46.548Z,96399.84
2022-10-09T17:09:48.185Z,96394.84
2022-10-09T17:12:49.824Z,96391.66
2022-10-09T17:15:51.400Z,96396.34
2022-10-09T17:18:54.433Z,96394.00
2022-10-09T17:21:56.126Z,96396.34
2022-10-09T17:24:57.769Z,96395.50
2022-10-09T17:27:59.740Z,96391.34
2022-10-09T17:31:04.787Z,96396.69
2022-10-09T17:34:06.687Z,96388.13
2022-10-09T17:37:08.376Z,96394.69
2022-10-09T17:40:10.132Z,96394.31
2022-10-09T17:43:11.762Z,96393.69
2022-10-09T17:46:14.709Z,96391.16
2022-10-09T17:49:16.370Z,96385.13
2022-10-09T17:52:17.974Z,96380.97
2022-10-09T17:55:19.610Z,96387.63
2022-10-09T17:58:24.145Z,96382.44
2022-10-09T18:01:26.033Z,96379.91
2022-10-09T18:04:27.789Z,96386.47
2022-10-09T18:07:29.591Z,96379.59
2022-10-09T18:10:31.473Z,96381.44
2022-10-09T18:13:34.413Z,96379.09
2022-10-09T18:16:38.001Z,96376.56
2022-10-09T18:19:39.712Z,96377.56
2022-10-09T18:22:41.311Z,96374.41
2022-10-09T18:25:45.863Z,96376.25
2022-10-09T18:28:48.637Z,96379.91
2022-10-09T18:31:55.417Z,96373.22
2022-10-09T18:34:57.096Z,96368.16
2022-10-09T18:37:58.886Z,96363.97
2022-10-09T18:41:01.808Z,96363.13
2022-10-09T18:44:04.682Z,96360.59
2022-10-09T18:47:11.720Z,96359.13
2022-10-09T18:50:14.981Z,96359.44
2022-10-09T18:53:16.779Z,96357.09
2022-10-09T18:56:20.970Z,96355.59
2022-10-09T18:59:23.130Z,96345.19
2022-10-09T19:02:27.011Z,96350.88
2022-10-09T19:05:28.838Z,96348.53
2022-10-09T19:08:30.536Z,96338.47
2022-10-09T19:11:33.785Z,96343.00
2022-10-09T19:14:36.490Z,96340.16
2022-10-09T19:17:38.638Z,96350.16
2022-10-09T19:20:40.309Z,96346.31
2022-10-09T19:23:42.876Z,96334.75
2022-10-09T19:26:45.312Z,96345.78
2022-10-09T19:29:46.984Z,96337.88
2022-10-09T19:32:48.906Z,96341.38
2022-10-09T19:35:53.601Z,96334.16
2022-10-09T19:38:55.288Z,96329.59
2022-10-09T19:41:56.955Z,96328.72
2022-10-09T19:44:58.910Z,96327.53
2022-10-09T19:48:01.091Z,96327.47
2022-10-09T19:51:07.976Z,96327.13
2022-10-09T19:54:10.195Z,96326.78
2022-10-09T19:57:14.270Z,96331.91
2022-10-09T20:00:16.129Z,96318.50
2022-10-09T20:03:17.934Z,96325.16
2022-10-09T20:06:19.537Z,96321.13
2022-10-09T20:09:21.223Z,96333.28
2022-10-09T20:12:23.560Z,96331.91
2022-10-09T20:15:25.292Z,96334.03
2022-10-09T20:18:27.412Z,96330.81
2022-10-09T20:21:31.303Z,96332.28
2022-10-09T20:24:32.900Z,96326.25
2022-10-09T20:27:34.546Z,96328.56
2022-10-09T20:30:36.177Z,96342.75
2022-10-09T20:33:39.110Z,96329.03
2022-10-09T20:36:40.830Z,96324.50
2022-10-09T20:39:42.592Z,96331.72
2022-10-09T20:42:44.319Z,96330.34
2022-10-09T20:45:46.307Z,96337.50
2022-10-09T20:48:48.633Z,96342.00
2022-10-09T20:51:51.155Z,96331.47
2022-10-09T20:54:52.779Z,96330.81
2022-10-09T20:57:55.088Z,96325.91
2022-10-09T21:00:57.417Z,96311.22
2022-10-09T21:04:03.070Z,96320.22
2022-10-09T21:07:04.684Z,96323.72
2022-10-09T21:10:06.731Z,96324.84
2022-10-09T21:13:08.343Z,96322.66
2022-10-09T21:16:12.962Z,96325.47
2022-10-09T21:19:15.017Z,96326.63
2022-10-09T21:22:17.073Z,96319.75
2022-10-09T21:25:18.753Z,96310.56
2022-10-09T21:28:21.801Z,96320.38
2022-10-09T21:31:28.872Z,96309.16
2022-10-09T21:34:30.618Z,96313.97
2022-10-09T21:37:35.602Z,96311.47
2022-10-09T21:40:40.160Z,96314.41
2022-10-09T21:43:41.770Z,96308.56
2022-10-09T21:46:43.424Z,96306.03
2022-10-09T21:49:45.594Z,96308.19
2022-10-09T21:52:48.881Z,96311.84
2022-10-09T21:55:50.729Z,96301.47
2022-10-09T21:58:52.739Z,96302.59
2022-10-09T22:01:55.688Z,96310.59
2022-10-09T22:04:57.461Z,96304.91
2022-10-09T22:07:59.229Z,96293.38
2022-10-09T22:11:04.150Z,96299.72
2022-10-09T22:14:06.099Z,96303.38
2022-10-09T22:17:07.692Z,96296.53
2022-10-09T22:20:09.842Z,96302.00
2022-10-09T22:23:13.210Z,96302.97
2022-10-09T22:26:17.853Z,96300.63
2022-10-09T22:29:19.540Z,96310.59
2022-10-09T22:32:22.217Z,96307.09
2022-10-09T22:35:24.081Z,96301.91
2022-10-09T22:38:25.692Z,96304.56
2022-10-09T22:41:29.815Z,96307.38
2022-10-09T22:44:31.527Z,96305.88
2022-10-09T22:47:33.153Z,96309.38
2022-10-09T22:50:36.761Z,96304.06
2022-10-09T22:53:39.699Z,96309.53
2022-10-09T22:56:43.487Z,96304.06
2022-10-09T22:59:45.096Z,96304.19
2022-10-09T23:02:46.909Z,96308.41
2022-10-09T23:05:48.640Z,96300.41
2022-10-09T23:08:50.565Z,96300.91
2022-10-09T23:11:52.498Z,96302.47
2022-10-09T23:14:54.086Z,96296.97
2022-10-09T23:17:55.903Z,96304.81
2022-10-09T23:20:57.797Z,96305.22
2022-10-09T23:23:59.578Z,96306.72
2022-10-09T23:27:01.189Z,96305.75
2022-10-09T23:30:03.085Z,96307.28
2022-10-09T23:33:04.836Z,96305.44
2022-10-09T23:36:07.863Z,96309.31
2022-10-09T23:39:10.002Z,96306.34
2022-10-09T23:42:11.694Z,96304.22
2022-10-09T23:45:13.887Z,96302.38
2022-10-09T23:48:15.499Z,96302.91
2022-10-09T23:51:18.853Z,96288.44
2022-10-09T23:54:20.461Z,96292.50
2022-10-09T23:57:22.271Z,96295.81
